createdAt,value
2022-10-11T00:02:19.646Z,102688.34
2022-10-11T00:04:50.688Z,102688.94
2022-10-11T00:07:20.542Z,102686.50
2022-10-11T00:09:47.170Z,102698.94
2022-10-11T00:12:14.011Z,102694.91
2022-10-11T00:14:40.757Z,102691.66
2022-10-11T00:17:10.206Z,102690.03
2022-10-11T00:19:42.545Z,102691.28
2022-10-11T00:22:09.401Z,102689.91
2022-10-11T00:24:38.371Z,102684.81
2022-10-11T00:27:05.407Z,102691.38
2022-10-11T00:29:32.060Z,102697.66
2022-10-11T00:31:58.958Z,102704.00
2022-10-11T00:34:25.776Z,102700.97
2022-10-11T00:36:54.720Z,102701.44
2022-10-11T00:39:21.691Z,102708.78
2022-10-11T00:41:49.444Z,102704.13
2022-10-11T00:44:22.036Z,102713.09
2022-10-11T00:46:55.560Z,102706.41
2022-10-11T00:49:34.514Z,102719.06
2022-10-11T00:52:12.023Z,102716.84
2022-10-11T00:54:42.561Z,102721.75
2022-10-11T00:57:14.380Z,102713.81
2022-10-11T00:59:45.286Z,102726.22
2022-10-11T01:02:14.649Z,102722.41
2022-10-11T01:04:42.214Z,102724.91
2022-10-11T01:07:11.463Z,102724.31
2022-10-11T01:09:38.004Z,102737.75
2022-10-11T01:12:13.035Z,102729.00
2022-10-11T01:15:03.402Z,102737.34
2022-10-11T01:17:44.475Z,102739.66
2022-10-11T01:20:26.488Z,102730.06
2022-10-11T01:23:15.598Z,102742.50
2022-10-11T01:25:48.221Z,102743.75
2022-10-11T01:28:33.121Z,102749.25
2022-10-11T01:31:09.987Z,102743.34
2022-10-11T01:34:03.379Z,102741.13
2022-10-11T01:36:35.200Z,102745.63
2022-10-11T01:39:06.425Z,102750.09
2022-10-11T01:41:41.196Z,102752.16
2022-10-11T01:44:09.365Z,102754.19
2022-10-11T01:46:37.184Z,102758.88
2022-10-11T01:49:04.044Z,102754.84
2022-10-11T01:51:40.575Z,102753.00
2022-10-11T01:54:56.666Z,102756.88
2022-10-11T01:57:46.775Z,102753.22
2022-10-11T02:00:20.771Z,102754.84
2022-10-11T02:03:23.617Z,102752.59
2022-10-11T02:06:05.031Z,102749.38
2022-10-11T02:08:34.600Z,102758.34
2022-10-11T02:11:14.963Z,102761.41
2022-10-11T02:13:48.689Z,102761.63
2022-10-11T02:16:21.864Z,102758.16
2022-10-11T02:18:51.900Z,102757.34
2022-10-11T02:21:22.141Z,102750.47
2022-10-11T02:23:55.507Z,102756.94
2022-10-11T02:26:25.295Z,102753.72
2022-10-11T02:28:56.842Z,102747.63
2022-10-11T02:31:25.111Z,102756.59
2022-10-11T02:34:20.352Z,102758.84
2022-10-11T02:37:09.202Z,102760.69
2022-10-11T02:39:56.561Z,102771.25
2022-10-11T02:42:32.795Z,102761.69
2022-10-11T02:45:07.952Z,102763.53
2022-10-11T02:47:35.085Z,102766.59
2022-10-11T02:50:02.329Z,102773.50
2022-10-11T02:52:29.275Z,102764.56
2022-10-11T02:54:55.882Z,102765.81
2022-10-11T02:57:22.379Z,102777.19
2022-10-11T02:59:48.899Z,102770.09
2022-10-11T03:02:15.542Z,102768.25
2022-10-11T03:04:42.197Z,102785.13
2022-10-11T03:07:08.711Z,102776.59
2022-10-11T03:09:35.372Z,102784.75
2022-10-11T03:12:01.874Z,102776.00
2022-10-11T03:14:28.508Z,102771.75
2022-10-11T03:16:55.153Z,102775.19
2022-10-11T03:19:21.757Z,102772.75
2022-10-11T03:21:48.441Z,102786.81
2022-10-11T03:24:15.062Z,102782.53
2022-10-11T03:26:41.705Z,102776.44
2022-10-11T03:29:08.938Z,102774.38
2022-10-11T03:31:36.121Z,102776.44
2022-10-11T03:34:04.775Z,102783.56
2022-10-11T03:36:31.553Z,102780.50
2022-10-11T03:39:01.016Z,102788.44
2022-10-11T03:41:27.677Z,102785.19
2022-10-11T03:43:54.204Z,102793.94
2022-10-11T03:46:21.125Z,102789.06
2022-10-11T03:48:48.551Z,102798.81
2022-10-11T03:51:15.267Z,102798.44
2022-10-11T03:53:42.168Z,102805.97
2022-10-11T03:56:10.023Z,102814.09
2022-10-11T03:58:36.771Z,102812.47
2022-10-11T04:01:03.953Z,102806.41
2022-10-11T04:03:31.031Z,102804.97
2022-10-11T04:05:57.744Z,102811.88
2022-10-11T04:08:24.378Z,102808.63
2022-10-11T04:10:51.263Z,102803.75
2022-10-11T04:13:17.888Z,102809.25
2022-10-11T04:15:44.688Z,102805.19
2022-10-11T04:18:14.311Z,102806.81
2022-10-11T04:20:42.812Z,102809.66
2022-10-11T04:23:10.357Z,102810.91
2022-10-11T04:25:39.190Z,102817.41
2022-10-11T04:28:08.125Z,102820.06
2022-10-11T04:30:34.936Z,102824.50
2022-10-11T04:33:01.634Z,102824.50
2022-10-11T04:35:28.344Z,102828.56
2022-10-11T04:37:57.287Z,102827.78
2022-10-11T04:40:23.981Z,102834.47
2022-10-11T04:42:52.031Z,102834.03
2022-10-11T04:45:18.576Z,102838.53
2022-10-11T04:47:45.115Z,102834.88
2022-10-11T04:50:11.626Z,102833.25
2022-10-11T04:52:38.227Z,102836.91
2022-10-11T04:55:05.315Z,102838.13
2022-10-11T04:57:34.518Z,102848.09
2022-10-11T05:00:04.701Z,102843.81
2022-10-11T05:02:32.529Z,102845.44
2022-10-11T05:04:59.778Z,102848.09
2022-10-11T05:07:26.425Z,102849.09
2022-10-11T05:09:53.035Z,102848.09
2022-10-11T05:12:22.761Z,102847.50
2022-10-11T05:14:49.266Z,102845.44
2022-10-11T05:17:15.829Z,102845.22
2022-10-11T05:19:42.283Z,102848.47
2022-10-11T05:22:09.380Z,102854.78
2022-10-11T05:24:35.957Z,102845.84
2022-10-11T05:27:03.645Z,102854.78
2022-10-11T05:29:33.053Z,102859.03
2022-10-11T05:31:59.681Z,102857.44
2022-10-11T05:34:26.333Z,102864.31
2022-10-11T05:36:52.890Z,102858.44
2022-10-11T05:39:19.518Z,102859.47
2022-10-11T05:41:46.725Z,102861.91
2022-10-11T05:44:13.277Z,102865.34
2022-10-11T05:46:40.305Z,102868.00
2022-10-11T05:49:06.816Z,102863.72
2022-10-11T05:51:33.661Z,102871.63
2022-10-11T05:54:00.197Z,102870.03
2022-10-11T05:56:27.105Z,102874.50
2022-10-11T05:58:56.553Z,102879.16
2022-10-11T06:01:28.207Z,102885.25
2022-10-11T06:03:55.897Z,102883.00
2022-10-11T06:06:23.077Z,102883.84
2022-10-11T06:08:50.178Z,102889.94
2022-10-11T06:11:21.926Z,102891.97
2022-10-11T06:13:48.827Z,102892.97
2022-10-11T06:16:16.279Z,102886.28
2022-10-11T06:18:42.996Z,102888.91
2022-10-11T06:21:10.174Z,102895.00
2022-10-11T06:23:36.676Z,102893.81
2022-10-11T06:26:08.231Z,102902.53
2022-10-11T06:28:36.255Z,102896.44
2022-10-11T06:31:05.315Z,102904.13
2022-10-11T06:33:32.340Z,102910.03
2022-10-11T06:36:02.862Z,102911.47
2022-10-11T06:38:29.475Z,102908.81
2022-10-11T06:40:56.206Z,102915.97
2022-10-11T06:43:22.877Z,102907.81
2022-10-11T06:45:49.532Z,102917.75
2022-10-11T06:48:17.446Z,102917.34
2022-10-11T06:50:59.179Z,102923.63
2022-10-11T06:53:29.360Z,102921.13
2022-10-11T06:56:02.990Z,102920.50
2022-10-11T06:58:30.072Z,102921.69
2022-10-11T07:01:02.199Z,102926.53
2022-10-11T07:03:30.337Z,102929.75
2022-10-11T07:06:06.545Z,102927.06
2022-10-11T07:08:33.720Z,102930.50
2022-10-11T07:11:07.116Z,102927.84
2022-10-11T07:13:33.858Z,102933.44
2022-10-11T07:16:02.448Z,102928.34
2022-10-11T07:18:29.922Z,102934.19
2022-10-11T07:20:56.668Z,102942.09
2022-10-11T07:23:24.088Z,102944.72
2022-10-11T07:25:54.703Z,102936.13
2022-10-11T07:28:25.764Z,102934.88
2022-10-11T07:30:52.594Z,102946.66
2022-10-11T07:33:19.546Z,102950.66
2022-10-11T07:35:48.536Z,102949.19
2022-10-11T07:38:16.725Z,102948.88
2022-10-11T07:40:45.896Z,102950.47
2022-10-11T07:43:13.608Z,102954.25
2022-10-11T07:45:41.522Z,102953.38
2022-10-11T07:48:09.403Z,102951.03
2022-10-11T07:50:36.030Z,102952.22
2022-10-11T07:53:03.145Z,102951.94
2022-10-11T07:55:33.458Z,102956.59
2022-10-11T07:58:00.037Z,102958.63
2022-10-11T08:00:30.319Z,102964.06
2022-10-11T08:02:57.132Z,102959.94
2022-10-11T08:05:23.840Z,102959.47
2022-10-11T08:07:50.772Z,102962.31
2022-10-11T08:10:17.841Z,102966.72
2022-10-11T08:12:48.102Z,102964.19
2022-10-11T08:15:14.839Z,102983.31
2022-10-11T08:17:41.765Z,102979.16
2022-10-11T08:20:08.846Z,102985.00
2022-10-11T08:22:35.475Z,102982.25
2022-10-11T08:25:02.199Z,102986.66
2022-10-11T08:27:28.818Z,102983.94
2022-10-11T08:29:55.526Z,102987.28
2022-10-11T08:32:22.230Z,102986.19
2022-10-11T08:34:48.961Z,102982.19
2022-10-11T08:37:15.657Z,102994.09
2022-10-11T08:39:42.148Z,102990.66
2022-10-11T08:42:25.435Z,102989.91
2022-10-11T08:45:10.477Z,102997.53
2022-10-11T08:47:41.442Z,103000.69
2022-10-11T08:50:19.563Z,103000.91
2022-10-11T08:53:14.542Z,103003.81
2022-10-11T08:55:48.486Z,103000.56
2022-10-11T08:58:21.811Z,103000.50
2022-10-11T09:00:52.564Z,103000.75
2022-10-11T09:03:42.519Z,103002.59
2022-10-11T09:06:40.035Z,102998.88
2022-10-11T09:09:55.767Z,102993.75
2022-10-11T09:12:42.727Z,103005.19
2022-10-11T09:15:17.016Z,102998.00
2022-10-11T09:18:21.605Z,103003.53
2022-10-11T09:20:56.390Z,103001.88
2022-10-11T09:23:34.737Z,103004.72
2022-10-11T09:26:11.342Z,103001.53
2022-10-11T09:29:15.293Z,103006.81
2022-10-11T09:31:49.382Z,103002.47
2022-10-11T09:34:16.688Z,103004.25
2022-10-11T09:37:21.036Z,102999.09
2022-10-11T09:40:00.358Z,103000.41
2022-10-11T09:42:28.018Z,103004.13
2022-10-11T09:44:57.272Z,103001.84
2022-10-11T09:47:28.868Z,102998.84
2022-10-11T09:50:03.143Z,102999.88
2022-10-11T09:52:30.277Z,103002.72
2022-10-11T09:55:01.147Z,102998.34
2022-10-11T09:57:31.967Z,103005.88
2022-10-11T10:00:08.557Z,103000.44
2022-10-11T10:02:56.503Z,102999.00
2022-10-11T10:05:26.349Z,102998.69
2022-10-11T10:08:09.771Z,103004.13
2022-10-11T10:11:02.656Z,103001.34
2022-10-11T10:13:38.159Z,103001.44
2022-10-11T10:16:16.356Z,103004.19
2022-10-11T10:18:52.731Z,102999.47
2022-10-11T10:21:28.040Z,102996.06
2022-10-11T10:23:56.908Z,102997.22
2022-10-11T10:26:26.553Z,103000.00
2022-10-11T10:28:56.684Z,103003.78
2022-10-11T10:31:30.895Z,103003.25
2022-10-11T10:33:57.801Z,102996.06
2022-10-11T10:36:32.582Z,102995.28
2022-10-11T10:39:00.885Z,102992.97
2022-10-11T10:41:31.405Z,102990.06
2022-10-11T10:44:00.753Z,102990.06
2022-10-11T10:46:48.505Z,102989.28
2022-10-11T10:52:49.066Z,102987.16
2022-10-11T10:55:24.714Z,102984.50
2022-10-11T10:58:18.795Z,102989.63
2022-10-11T11:00:51.744Z,102985.63
2022-10-11T11:03:39.216Z,102977.63
2022-10-11T11:06:22.328Z,102976.81
2022-10-11T11:09:01.668Z,102979.50
2022-10-11T11:11:52.266Z,102980.31
2022-10-11T11:14:44.892Z,102979.50
2022-10-11T11:17:54.163Z,102975.22
2022-10-11T11:20:40.889Z,102962.06
2022-10-11T11:23:32.404Z,102973.13
2022-10-11T11:26:18.594Z,102965.56
2022-10-11T11:29:03.432Z,102965.88
2022-10-11T11:31:46.164Z,102961.56
2022-10-11T11:34:22.258Z,102958.06
2022-10-11T11:36:57.772Z,102957.25
2022-10-11T11:39:43.978Z,102957.78
2022-10-11T11:42:19.807Z,102955.91
2022-10-11T11:44:48.670Z,102952.44
2022-10-11T11:47:19.074Z,102957.53
2022-10-11T11:49:50.079Z,102947.63
2022-10-11T11:52:33.665Z,102957.28
2022-10-11T11:55:22.134Z,102948.69
2022-10-11T11:58:07.066Z,102953.00
2022-10-11T12:00:49.137Z,102951.91
2022-10-11T12:03:24.573Z,102946.28
2022-10-11T12:06:14.676Z,102947.88
2022-10-11T12:08:44.786Z,102940.63
2022-10-11T12:11:29.418Z,102949.47
2022-10-11T12:13:59.874Z,102938.22
2022-10-11T12:16:27.214Z,102940.63
2022-10-11T12:18:56.256Z,102932.06
2022-10-11T12:21:37.052Z,102934.19
2022-10-11T12:24:06.684Z,102934.19
2022-10-11T12:26:44.399Z,102933.38
2022-10-11T12:29:17.766Z,102924.78
2022-10-11T12:31:46.464Z,102920.16
2022-10-11T12:34:35.910Z,102911.28
2022-10-11T12:37:20.807Z,102914.47
2022-10-11T12:39:52.350Z,102914.97
2022-10-11T12:42:32.799Z,102899.91
2022-10-11T12:45:11.446Z,102904.69
2022-10-11T12:48:00.985Z,102903.59
2022-10-11T12:50:53.697Z,102909.97
2022-10-11T12:53:37.550Z,102911.31
2022-10-11T12:56:12.362Z,102908.09
2022-10-11T12:58:41.461Z,102902.16
2022-10-11T13:01:14.283Z,102903.00
2022-10-11T13:04:02.962Z,102907.53
2022-10-11T13:06:33.946Z,102903.78
2022-10-11T13:09:09.884Z,102889.22
2022-10-11T13:11:48.958Z,102901.00
2022-10-11T13:14:19.230Z,102899.31
2022-10-11T13:17:07.043Z,102895.50
2022-10-11T13:19:38.181Z,102893.78
2022-10-11T13:22:15.832Z,102890.44
2022-10-11T13:24:42.966Z,102890.66
2022-10-11T13:27:19.965Z,102891.69
2022-10-11T13:29:48.014Z,102891.69
2022-10-11T13:32:18.471Z,102892.75
2022-10-11T13:34:50.026Z,102889.31
2022-10-11T13:37:20.026Z,102890.44
2022-10-11T13:39:51.346Z,102894.50
2022-10-11T13:42:22.599Z,102886.75
2022-10-11T13:44:52.224Z,102883.28
2022-10-11T13:47:29.907Z,102884.34
2022-10-11T13:50:23.403Z,102886.31
2022-10-11T13:52:56.612Z,102883.13
2022-10-11T13:55:31.034Z,102880.16
2022-10-11T13:57:59.807Z,102881.81
2022-10-11T14:00:31.889Z,102883.69
2022-10-11T14:03:19.493Z,102878.84
2022-10-11T14:05:59.746Z,102879.66
2022-10-11T14:08:50.621Z,102872.97
2022-10-11T14:11:33.574Z,102883.44
2022-10-11T14:14:00.531Z,102871.38
2022-10-11T14:16:29.505Z,102873.75
2022-10-11T14:19:10.332Z,102864.34
2022-10-11T14:21:46.255Z,102872.94
2022-10-11T14:24:13.527Z,102873.75
2022-10-11T14:26:46.500Z,102868.59
2022-10-11T14:29:21.159Z,102875.03
2022-10-11T14:31:47.852Z,102870.97
2022-10-11T14:34:21.443Z,102872.00
2022-10-11T14:36:48.776Z,102865.78
2022-10-11T14:39:24.346Z,102866.25
2022-10-11T14:41:52.718Z,102865.41
2022-10-11T14:44:22.087Z,102869.13
2022-10-11T14:46:50.782Z,102864.28
2022-10-11T14:49:25.042Z,102860.22
2022-10-11T14:51:52.769Z,102860.72
2022-10-11T14:54:22.767Z,102858.56
2022-10-11T14:56:51.373Z,102865.84
2022-10-11T14:59:21.899Z,102859.34
2022-10-11T15:01:53.825Z,102858.56
2022-10-11T15:04:22.793Z,102870.97
2022-10-11T15:06:50.111Z,102864.59
2022-10-11T15:09:17.566Z,102863.78
2022-10-11T15:11:44.085Z,102861.38
2022-10-11T15:14:10.681Z,102859.03
2022-10-11T15:16:37.290Z,102858.56
2022-10-11T15:19:04.159Z,102854.56
2022-10-11T15:21:31.217Z,102859.94
2022-10-11T15:24:01.339Z,102858.59
2022-10-11T15:26:29.337Z,102854.06
2022-10-11T15:28:57.614Z,102855.47
2022-10-11T15:31:24.471Z,102849.63
2022-10-11T15:33:51.854Z,102851.28
2022-10-11T15:36:22.193Z,102852.63
2022-10-11T15:38:49.508Z,102856.44
2022-10-11T15:41:19.467Z,102845.72
2022-10-11T15:43:48.695Z,102846.56
2022-10-11T15:46:22.339Z,102847.63
2022-10-11T15:48:54.071Z,102847.34
2022-10-11T15:51:23.098Z,102846.56
2022-10-11T15:53:51.141Z,102841.19
2022-10-11T15:56:21.572Z,102844.94
2022-10-11T15:58:48.628Z,102837.44
2022-10-11T16:01:18.771Z,102838.22
2022-10-11T16:03:47.173Z,102832.84
2022-10-11T16:06:14.251Z,102833.44
2022-10-11T16:08:41.263Z,102838.84
2022-10-11T16:11:10.047Z,102828.91
2022-10-11T16:13:37.231Z,102829.44
2022-10-11T16:16:08.704Z,102826.00
2022-10-11T16:18:38.977Z,102832.19
2022-10-11T16:21:09.655Z,102832.78
2022-10-11T16:23:37.303Z,102835.22
2022-10-11T16:26:10.227Z,102836.59
2022-10-11T16:28:37.857Z,102830.44
2022-10-11T16:31:11.380Z,102834.50
2022-10-11T16:33:48.006Z,102835.34
2022-10-11T16:36:36.223Z,102836.16
2022-10-11T16:39:15.836Z,102837.25
2022-10-11T16:41:46.088Z,102839.41
2022-10-11T16:44:14.757Z,102842.94
2022-10-11T16:46:42.192Z,102841.34
2022-10-11T16:49:11.531Z,102846.19
2022-10-11T16:51:38.127Z,102847.53
2022-10-11T16:54:04.995Z,102848.63
2022-10-11T16:56:37.387Z,102865.28
2022-10-11T16:59:06.478Z,102863.94
2022-10-11T17:01:33.394Z,102854.84
2022-10-11T17:04:00.178Z,102846.78
2022-10-11T17:06:27.081Z,102854.84
2022-10-11T17:08:56.727Z,102851.09
2022-10-11T17:11:23.980Z,102861.00
2022-10-11T17:13:53.458Z,102854.88
2022-10-11T17:16:21.317Z,102850.28
2022-10-11T17:18:48.610Z,102850.06
2022-10-11T17:21:18.011Z,102847.63
2022-10-11T17:23:45.265Z,102853.00
2022-10-11T17:26:19.382Z,102853.53
2022-10-11T17:28:46.383Z,102851.38
2022-10-11T17:31:13.196Z,102858.34
2022-10-11T17:33:39.860Z,102854.06
2022-10-11T17:36:23.204Z,102858.88
2022-10-11T17:38:51.357Z,102853.78
2022-10-11T17:41:21.416Z,102852.97
2022-10-11T17:43:49.383Z,102859.66
2022-10-11T17:46:18.815Z,102862.06
2022-10-11T17:48:45.728Z,102863.41
2022-10-11T17:51:17.847Z,102861.53
2022-10-11T17:53:46.429Z,102856.72
2022-10-11T17:56:23.907Z,102860.19
2022-10-11T17:58:55.339Z,102858.59
2022-10-11T18:01:25.817Z,102858.84
2022-10-11T18:04:01.679Z,102865.25
2022-10-11T18:06:31.904Z,102863.63
2022-10-11T18:09:02.842Z,102863.06
2022-10-11T18:11:32.598Z,102863.81
2022-10-11T18:13:59.437Z,102854.44
2022-10-11T18:16:28.576Z,102859.81
2022-10-11T18:18:57.455Z,102859.28
2022-10-11T18:21:28.764Z,102861.19
2022-10-11T18:24:02.185Z,102866.53
2022-10-11T18:26:30.635Z,102857.66
2022-10-11T18:28:58.472Z,102860.34
2022-10-11T18:31:30.044Z,102859.53
2022-10-11T18:33:57.252Z,102863.25
2022-10-11T18:36:26.824Z,102859.22
2022-10-11T18:39:01.097Z,102863.25
2022-10-11T18:41:32.081Z,102864.56
2022-10-11T18:44:01.651Z,102861.84
2022-10-11T18:46:30.141Z,102861.56
2022-10-11T18:48:58.767Z,102858.34
2022-10-11T18:51:31.567Z,102858.88
2022-10-11T18:54:00.966Z,102855.38
2022-10-11T18:56:30.053Z,102857.78
2022-10-11T18:58:59.287Z,102853.72
2022-10-11T19:01:32.003Z,102859.31
2022-10-11T19:04:02.452Z,102861.38
2022-10-11T19:06:33.491Z,102847.47
2022-10-11T19:09:02.670Z,102855.50
2022-10-11T19:11:29.911Z,102854.16
2022-10-11T19:13:59.384Z,102855.22
2022-10-11T19:16:29.957Z,102852.00
2022-10-11T19:18:57.787Z,102852.25
2022-10-11T19:21:24.810Z,102861.31
2022-10-11T19:23:51.836Z,102850.06
2022-10-11T19:26:22.060Z,102853.78
2022-10-11T19:28:55.371Z,102850.50
2022-10-11T19:31:22.710Z,102850.47
2022-10-11T19:33:49.656Z,102848.81
2022-10-11T19:36:17.478Z,102848.50
2022-10-11T19:38:46.446Z,102847.13
2022-10-11T19:41:17.389Z,102849.19
2022-10-11T19:43:46.218Z,102841.13
2022-10-11T19:46:20.277Z,102848.84
2022-10-11T19:48:54.376Z,102841.34
2022-10-11T19:51:25.908Z,102833.03
2022-10-11T19:54:02.886Z,102849.28
2022-10-11T19:56:32.236Z,102837.97
2022-10-11T19:58:59.658Z,102840.63
2022-10-11T20:01:29.740Z,102831.75
2022-10-11T20:03:57.573Z,102842.63
2022-10-11T20:06:25.995Z,102834.50
2022-10-11T20:09:16.708Z,102834.16
2022-10-11T20:11:40.319Z,102832.19
2022-10-11T20:14:06.954Z,102831.81
2022-10-11T20:16:33.526Z,102835.47
2022-10-11T20:19:00.315Z,102839.13
2022-10-11T20:21:29.545Z,102837.41
2022-10-11T20:24:01.742Z,102847.63
2022-10-11T20:26:29.657Z,102844.69
2022-10-11T20:28:57.166Z,102847.50
2022-10-11T20:31:29.813Z,102849.75
2022-10-11T20:33:59.149Z,102851.53
2022-10-11T20:36:29.726Z,102845.81
2022-10-11T20:38:58.170Z,102855.00
2022-10-11T20:41:32.533Z,102847.03
2022-10-11T20:44:04.710Z,102847.09
2022-10-11T20:46:33.822Z,102848.38
2022-10-11T20:49:04.595Z,102848.03
2022-10-11T20:51:33.716Z,102846.84
2022-10-11T20:54:02.715Z,102846.31
2022-10-11T20:56:29.995Z,102849.84
2022-10-11T20:58:58.345Z,102844.19
2022-10-11T21:01:31.329Z,102842.25
2022-10-11T21:03:59.607Z,102847.78
2022-10-11T21:06:26.782Z,102846.06
2022-10-11T21:08:55.331Z,102844.34
2022-10-11T21:11:24.731Z,102846.94
2022-10-11T21:13:55.829Z,102842.31
2022-10-11T21:16:22.856Z,102850.66
2022-10-11T21:18:54.347Z,102846.25
2022-10-11T21:21:21.830Z,102844.63
2022-10-11T21:23:48.530Z,102843.47
2022-10-11T21:26:18.346Z,102843.84
2022-10-11T21:28:46.432Z,102847.44
2022-10-11T21:31:15.495Z,102848.94
2022-10-11T21:33:44.420Z,102846.28
2022-10-11T21:36:17.116Z,102853.44
2022-10-11T21:38:44.388Z,102844.09
2022-10-11T21:41:13.840Z,102852.06
2022-10-11T21:43:40.855Z,102847.78
2022-10-11T21:46:10.980Z,102851.72
2022-10-11T21:48:39.179Z,102851.94
2022-10-11T21:51:06.812Z,102857.53
2022-10-11T21:53:33.928Z,102859.69
2022-10-11T21:56:01.419Z,102858.66
2022-10-11T21:58:28.341Z,102853.00
2022-10-11T22:00:55.061Z,102854.97
2022-10-11T22:03:21.855Z,102853.25
2022-10-11T22:05:49.128Z,102855.09
2022-10-11T22:08:16.341Z,102855.09
2022-10-11T22:10:44.404Z,102859.00
2022-10-11T22:13:11.665Z,102850.94
2022-10-11T22:15:39.343Z,102856.00
2022-10-11T22:18:06.265Z,102853.91
2022-10-11T22:20:33.780Z,102847.34
2022-10-11T22:23:00.469Z,102846.31
2022-10-11T22:25:27.076Z,102848.53
2022-10-11T22:27:54.088Z,102844.22
2022-10-11T22:30:20.705Z,102841.34
2022-10-11T22:32:47.459Z,102845.28
2022-10-11T22:35:14.086Z,102842.28
2022-10-11T22:37:40.987Z,102841.00
2022-10-11T22:40:08.462Z,102842.63
2022-10-11T22:42:35.121Z,102849.75
2022-10-11T22:45:01.814Z,102841.78
2022-10-11T22:47:28.599Z,102841.00
2022-10-11T22:49:55.141Z,102846.31
2022-10-11T22:52:21.714Z,102846.53
2022-10-11T22:54:48.241Z,102842.97
2022-10-11T22:57:14.902Z,102847.94
2022-10-11T22:59:41.596Z,102845.13
2022-10-11T23:02:08.493Z,102845.63
2022-10-11T23:04:35.433Z,102841.81
2022-10-11T23:07:04.946Z,102841.81
2022-10-11T23:09:31.864Z,102841.22
2022-10-11T23:11:59.550Z,102841.69
2022-10-11T23:14:26.239Z,102835.22
2022-10-11T23:16:53.371Z,102832.00
2022-10-11T23:19:19.993Z,102833.81
2022-10-11T23:21:46.996Z,102835.09
2022-10-11T23:24:13.867Z,102832.06
2022-10-11T23:26:40.555Z,102829.78
2022-10-11T23:29:07.147Z,102830.34
2022-10-11T23:31:33.717Z,102819.50
2022-10-11T23:34:00.337Z,102817.66
2022-10-11T23:36:28.596Z,102818.22
2022-10-11T23:38:57.368Z,102819.50
2022-10-11T23:41:26.068Z,102821.38
2022-10-11T23:43:53.173Z,102816.84
2022-10-11T23:46:20.037Z,102823.44
2022-10-11T23:48:46.965Z,102825.53
2022-10-11T23:51:17.696Z,102818.69
2022-10-11T23:53:44.300Z,102814.50
2022-10-11T23:56:11.312Z,102815.78
2022-10-11T23:58:38.156Z,102823.63
